Time;durP1;ratioP1;P1;durP2;ratioP2;P2;SDS_P1;SDS_P2;PMS_P1;PMS_P2;Temp;Humidity;BMP_temperature;BMP_pressure;BME280_temperature;BME280_humidity;BME280_pressure;Samples;Min_cycle;Max_cycle;Signal;HPM_P1;HPM_P2
2022/12/22 03:27:10;;;;;;;13.27;10.85;;;;;;;6.48;100.00;99924.91;5010857;28;20057;-66
2022/12/22 03:29:37;;;;;;;12.48;11.05;;;;;;;6.48;100.00;99917.06;5016042;28;20045;-65
2022/12/22 03:32:04;;;;;;;11.68;9.80;;;;;;;6.52;100.00;99909.91;5018131;28;20075;-64
2022/12/22 03:34:32;;;;;;;11.00;9.90;;;;;;;6.52;100.00;99908.13;5009470;28;20086;-64
2022/12/22 03:36:59;;;;;;;12.95;9.52;;;;;;;6.55;100.00;99902.75;5020378;28;20144;-64
2022/12/22 03:39:26;;;;;;;11.45;10.00;;;;;;;6.55;100.00;99904.53;4994178;28;20410;-65
2022/12/22 03:47:25;;;;;;;12.45;10.10;;;;;;;6.55;100.00;99904.53;4996564;28;20699;-66
2022/12/22 03:49:52;;;;;;;11.85;10.13;;;;;;;6.57;100.00;99892.19;5005396;28;20141;-66
2022/12/22 03:52:19;;;;;;;12.30;11.05;;;;;;;6.59;100.00;99891.19;4996677;28;20139;-64
2022/12/22 03:54:46;;;;;;;12.00;9.82;;;;;;;6.62;100.00;99889.34;5013845;28;20089;-65
2022/12/22 03:57:13;;;;;;;13.82;10.27;;;;;;;6.64;100.00;99885.72;5015055;28;20145;-65
2022/12/22 03:59:41;;;;;;;11.23;9.80;;;;;;;6.65;100.00;99887.41;5010018;28;20085;-65
2022/12/22 04:02:08;;;;;;;11.27;9.70;;;;;;;6.66;100.00;99885.63;5014102;28;20081;-66
2022/12/22 04:04:35;;;;;;;12.27;9.88;;;;;;;6.68;100.00;99870.72;5018227;28;20572;-65
2022/12/22 04:07:02;;;;;;;13.13;10.10;;;;;;;6.69;100.00;99861.94;5011698;28;20136;-65
2022/12/22 04:09:30;;;;;;;16.00;10.00;;;;;;;6.69;100.00;99860.16;5013951;28;20045;-65
2022/12/22 04:14:43;;;;;;;13.48;10.88;;;;;;;6.64;100.00;99851.72;4990891;28;20137;-65
2022/12/22 04:17:10;;;;;;;11.25;10.05;;;;;;;6.65;100.00;99857.78;5011976;28;20133;-65
2022/12/22 04:19:38;;;;;;;11.65;10.38;;;;;;;6.64;100.00;99850.88;4960624;28;1175999;-65
2022/12/22 04:22:06;;;;;;;14.25;10.80;;;;;;;6.65;100.00;99849.94;5020923;28;20436;-65
2022/12/22 04:24:33;;;;;;;12.93;10.90;;;;;;;6.65;100.00;99842.09;5006806;28;20161;-65
2022/12/22 04:27:00;;;;;;;12.57;11.27;;;;;;;6.66;100.00;99849.84;4996807;28;20077;-64
2022/12/22 04:29:27;;;;;;;17.27;11.25;;;;;;;6.66;100.00;99849.00;5008366;28;20129;-65
2022/12/22 04:31:54;;;;;;;13.63;11.10;;;;;;;6.65;100.00;99849.94;5016873;28;20107;-66
2022/12/22 04:34:22;;;;;;;11.07;9.50;;;;;;;6.65;100.00;99852.56;5012550;28;20056;-65
2022/12/22 04:36:49;;;;;;;13.30;11.18;;;;;;;6.63;100.00;99849.19;5007066;28;20068;-67
2022/12/22 04:39:16;;;;;;;15.10;10.90;;;;;;;6.62;100.00;99842.25;5003334;28;20090;-64
2022/12/22 04:41:44;;;;;;;12.48;11.20;;;;;;;6.63;100.00;99838.75;5009108;28;20054;-65
2022/12/22 04:44:11;;;;;;;12.80;11.50;;;;;;;6.63;100.00;99836.97;5003262;28;20185;-65
2022/12/22 05:07:59;;;;;;;17.15;14.85;;;;;;;6.62;100.00;99800.41;5008883;28;20032;-66
2022/12/22 05:15:42;;;;;;;17.08;14.55;;;;;;;6.59;100.00;99797.06;5006445;28;20108;-65
2022/12/22 05:28:12;;;;;;;19.45;14.38;;;;;;;6.55;100.00;99785.09;4986707;28;20040;-64
2022/12/22 08:19:58;;;;;;;22.75;18.42;;;;;;;6.98;100.00;99635.25;5007080;28;20056;-65
2022/12/22 08:53:55;;;;;;;23.10;16.23;;;;;;;7.05;100.00;99599.97;4996967;28;20040;-67
2022/12/22 09:05:14;;;;;;;19.83;15.45;;;;;;;7.16;100.00;99591.44;5009544;28;20085;-66
2022/12/22 09:33:35;;;;;;;20.05;14.63;;;;;;;7.31;100.00;99572.19;5005289;28;20606;-67
2022/12/22 09:53:43;;;;;;;20.38;13.95;;;;;;;7.42;100.00;99546.16;5009300;28;21020;-66
2022/12/22 09:56:13;;;;;;;17.05;13.90;;;;;;;7.44;100.00;99546.91;5009144;28;20546;-66
2022/12/22 10:56:06;;;;;;;14.43;12.07;;;;;;;7.75;100.00;99485.56;4995199;28;20409;-64
2022/12/22 13:47:19;;;;;;;13.10;10.80;;;;;;;8.45;100.00;99459.03;5032813;28;20056;-78
2022/12/22 13:49:47;;;;;;;10.20;9.25;;;;;;;8.48;100.00;99464.06;5007256;28;20088;-79
2022/12/22 14:44:27;;;;;;;11.60;9.45;;;;;;;8.46;100.00;99525.44;4997302;28;20053;-66
2022/12/22 14:47:18;;;;;;;12.40;11.13;;;;;;;8.43;100.00;99529.13;4990247;28;20472;-64
2022/12/22 14:49:49;;;;;;;10.35;8.90;;;;;;;8.46;100.00;99539.38;4989491;28;20116;-65
2022/12/22 14:52:34;;;;;;;11.73;9.25;;;;;;;8.43;100.00;99541.41;4966822;28;20081;-64
2022/12/22 14:55:02;;;;;;;11.93;9.88;;;;;;;8.42;100.00;99547.56;4986542;28;20295;-65
2022/12/22 14:57:38;;;;;;;10.88;9.75;;;;;;;8.39;100.00;99542.53;4984332;28;20163;-64
2022/12/22 15:00:08;;;;;;;11.13;9.82;;;;;;;8.39;100.00;99553.88;4991212;28;20046;-64
2022/12/22 15:02:38;;;;;;;11.48;9.45;;;;;;;8.35;100.00;99560.22;4990936;28;20058;-65
2022/12/22 15:05:28;;;;;;;10.18;9.18;;;;;;;8.37;100.00;99568.84;4991345;28;20161;-64
2022/12/22 15:07:56;;;;;;;10.38;8.70;;;;;;;8.38;100.00;99564.47;4988665;28;20401;-65
2022/12/22 15:10:38;;;;;;;10.02;7.88;;;;;;;8.38;100.00;99567.94;4984375;28;20689;-66
2022/12/22 15:13:11;;;;;;;11.25;8.20;;;;;;;8.32;100.00;99576.16;4989607;28;20407;-65
2022/12/22 15:15:38;;;;;;;10.13;8.20;;;;;;;8.34;100.00;99579.53;4962265;28;20399;-65
2022/12/22 15:18:05;;;;;;;12.15;8.95;;;;;;;8.36;100.00;99588.13;4982808;28;20145;-65
2022/12/22 15:20:32;;;;;;;9.32;8.27;;;;;;;8.33;100.00;99585.69;4992441;28;20062;-66
2022/12/22 15:23:13;;;;;;;10.57;7.75;;;;;;;8.30;100.00;99593.78;4987021;28;20062;-67
2022/12/22 15:25:40;;;;;;;11.82;9.05;;;;;;;8.29;100.00;99594.72;4994932;28;20054;-65
2022/12/22 15:28:08;;;;;;;11.25;8.73;;;;;;;8.32;100.00;99586.66;4997842;28;20519;-66
2022/12/22 15:30:35;;;;;;;11.70;8.10;;;;;;;8.31;100.00;99593.66;4999326;28;20054;-65
2022/12/22 15:33:03;;;;;;;12.35;8.45;;;;;;;8.34;100.00;99598.72;4971127;28;20061;-65
2022/12/22 15:35:32;;;;;;;11.10;8.70;;;;;;;8.32;100.00;99610.25;4964950;28;20118;-65
2022/12/22 15:38:00;;;;;;;10.60;8.18;;;;;;;8.32;100.00;99618.09;4964961;28;20137;-65
2022/12/22 15:40:28;;;;;;;10.82;8.38;;;;;;;8.32;100.00;99628.59;4991077;28;20052;-63
2022/12/22 15:42:55;;;;;;;10.75;9.50;;;;;;;8.28;100.00;99627.13;4992126;28;20058;-66
2022/12/22 15:45:22;;;;;;;10.32;9.23;;;;;;;8.26;100.00;99626.38;4996316;28;20065;-63
2022/12/22 15:47:51;;;;;;;12.18;8.68;;;;;;;8.38;100.00;99625.63;4974679;28;20050;-64
2022/12/22 15:50:28;;;;;;;10.15;9.07;;;;;;;8.29;100.00;99632.28;4979851;28;20142;-65
2022/12/22 15:53:03;;;;;;;14.35;9.63;;;;;;;8.23;100.00;99630.03;4993928;28;20057;-64
2022/12/22 15:55:31;;;;;;;11.50;10.25;;;;;;;8.20;100.00;99632.03;4979999;28;20053;-64
2022/12/22 15:57:58;;;;;;;10.88;9.82;;;;;;;8.18;100.00;99637.38;4997660;28;20060;-65
2022/12/22 16:00:25;;;;;;;10.98;9.85;;;;;;;8.19;100.00;99641.66;4993118;28;20062;-64
2022/12/22 16:02:53;;;;;;;13.45;10.10;;;;;;;8.20;100.00;99646.00;4983419;28;20137;-65
2022/12/22 16:05:20;;;;;;;15.70;10.88;;;;;;;8.18;100.00;99662.75;4966504;28;20118;-64
2022/12/22 16:07:47;;;;;;;11.65;10.43;;;;;;;8.13;100.00;99653.38;4997314;28;20113;-65
2022/12/22 16:10:23;;;;;;;11.68;10.55;;;;;;;8.13;100.00;99660.41;4989267;28;20058;-65
2022/12/22 16:12:58;;;;;;;12.10;10.82;;;;;;;8.12;100.00;99672.69;4993389;28;20129;-63
2022/12/22 16:15:27;;;;;;;12.63;11.32;;;;;;;8.12;100.00;99677.09;4989692;28;20058;-64
2022/12/22 16:17:54;;;;;;;12.82;11.57;;;;;;;8.17;100.00;99676.78;4979204;28;20054;-62
2022/12/22 16:20:22;;;;;;;13.13;11.70;;;;;;;8.11;100.00;99665.78;4995310;28;20049;-63
2022/12/22 16:22:50;;;;;;;13.68;12.27;;;;;;;8.06;100.00;99678.34;4995836;28;20460;-64
2022/12/22 16:25:19;;;;;;;19.50;14.93;;;;;;;8.06;100.00;99680.09;4992490;28;20074;-64
2022/12/22 16:27:48;;;;;;;17.65;14.95;;;;;;;8.03;100.00;99691.63;4994602;28;20054;-65
2022/12/22 16:30:19;;;;;;;18.15;15.10;;;;;;;8.09;100.00;99695.63;4994815;28;20145;-65
2022/12/22 16:32:47;;;;;;;18.40;15.75;;;;;;;8.03;100.00;99701.28;4992535;28;20149;-65
2022/12/22 16:35:16;;;;;;;18.50;15.20;;;;;;;7.98;100.00;99705.97;4994624;28;20073;-65
2022/12/22 16:37:45;;;;;;;18.38;15.68;;;;;;;7.95;100.00;99717.47;4992179;28;20085;-64
2022/12/22 16:40:12;;;;;;;16.98;15.07;;;;;;;7.97;100.00;99715.59;4970763;28;20579;-64
2022/12/22 16:42:42;;;;;;;19.50;16.20;;;;;;;7.93;100.00;99724.59;4996200;28;20054;-65
2022/12/22 16:45:30;;;;;;;17.27;15.15;;;;;;;7.90;100.00;99732.63;4980203;28;20038;-66
2022/12/22 16:47:59;;;;;;;19.92;16.38;;;;;;;7.87;100.00;99723.19;4973300;28;20579;-65
2022/12/22 16:50:31;;;;;;;23.17;17.23;;;;;;;7.93;100.00;99716.72;4975528;28;20062;-65
2022/12/22 16:53:00;;;;;;;18.55;16.13;;;;;;;7.88;100.00;99721.44;4998619;28;20146;-64
2022/12/22 16:55:27;;;;;;;17.65;15.52;;;;;;;7.84;100.00;99719.94;4974219;28;20595;-64
2022/12/22 16:57:54;;;;;;;20.13;17.65;;;;;;;7.80;100.00;99724.50;4995920;28;20042;-64
2022/12/22 17:00:27;;;;;;;19.70;16.35;;;;;;;7.85;100.00;99716.38;5005613;28;20042;-64
2022/12/22 17:03:11;;;;;;;18.95;15.98;;;;;;;7.80;100.00;99723.66;4998324;28;20056;-65
2022/12/22 17:05:39;;;;;;;20.35;16.25;;;;;;;7.81;100.00;99723.56;4979588;28;20074;-65
2022/12/22 17:08:18;;;;;;;20.00;17.70;;;;;;;7.77;100.00;99734.34;4988200;28;20137;-65
2022/12/22 17:10:46;;;;;;;23.08;18.83;;;;;;;7.71;100.00;99740.78;4996389;28;20189;-65
2022/12/22 17:13:13;;;;;;;22.15;17.45;;;;;;;7.72;100.00;99747.72;5006515;28;20046;-65
2022/12/22 17:15:40;;;;;;;19.55;16.77;;;;;;;7.68;100.00;99742.75;4988376;28;20146;-65
2022/12/22 17:18:18;;;;;;;19.52;17.15;;;;;;;7.66;100.00;99753.34;5003113;28;20060;-66
2022/12/22 17:20:51;;;;;;;19.10;15.98;;;;;;;7.63;100.00;99756.13;4957497;28;20074;-65
2022/12/22 17:23:35;;;;;;;21.83;17.65;;;;;;;7.63;100.00;99756.13;4959530;28;20065;-65
2022/12/22 17:26:05;;;;;;;20.45;17.40;;;;;;;7.63;100.00;99764.00;4970668;23;20082;-63
2022/12/22 17:28:34;;;;;;;22.50;17.95;;;;;;;7.59;100.00;99760.72;4988291;28;20086;-65
2022/12/22 17:31:01;;;;;;;19.42;16.73;;;;;;;7.60;100.00;99754.53;4969231;28;20126;-63
2022/12/22 17:33:28;;;;;;;23.35;18.55;;;;;;;7.61;100.00;99765.88;4977578;28;20059;-65
2022/12/22 17:35:55;;;;;;;19.75;16.92;;;;;;;7.60;100.00;99769.41;4982331;28;20050;-65
2022/12/22 17:38:25;;;;;;;20.92;17.60;;;;;;;7.62;100.00;99772.78;4957437;28;20138;-64
2022/12/22 17:40:52;;;;;;;27.58;20.40;;;;;;;7.58;100.00;99772.13;4958930;28;20051;-64
2022/12/22 17:43:20;;;;;;;22.38;18.48;;;;;;;7.55;100.00;99760.97;4977371;28;20051;-65
2022/12/22 17:45:47;;;;;;;23.77;18.73;;;;;;;7.51;100.00;99756.88;4958377;28;20577;-65
2022/12/22 17:48:15;;;;;;;26.92;20.02;;;;;;;7.54;100.00;99764.53;4980657;28;20135;-65
2022/12/22 17:50:44;;;;;;;21.67;17.90;;;;;;;7.52;100.00;99775.13;4961415;28;20395;-65
2022/12/22 17:53:16;;;;;;;22.95;20.10;;;;;;;7.55;100.00;99768.84;4965862;28;20145;-64
2022/12/22 17:55:44;;;;;;;22.80;18.58;;;;;;;7.48;100.00;99772.78;4958035;28;20065;-64
2022/12/22 17:58:31;;;;;;;23.98;19.67;;;;;;;7.52;100.00;99774.25;4984635;28;20543;-64
2022/12/22 18:00:58;;;;;;;23.38;19.17;;;;;;;7.47;100.00;99773.69;4976933;28;20043;-65
2022/12/22 18:03:26;;;;;;;25.98;19.60;;;;;;;7.44;100.00;99777.34;4988868;28;20153;-63
2022/12/22 18:05:54;;;;;;;24.33;19.70;;;;;;;7.52;100.00;99779.50;4972486;28;20129;-65
2022/12/22 18:08:21;;;;;;;25.13;20.70;;;;;;;7.48;100.00;99776.25;4982555;28;20043;-65
2022/12/22 18:10:48;;;;;;;26.00;20.77;;;;;;;7.48;100.00;99783.25;4980451;28;20060;-64
2022/12/22 18:13:19;;;;;;;25.48;21.05;;;;;;;7.52;100.00;99788.22;4974241;28;20051;-65
2022/12/22 18:15:47;;;;;;;24.00;20.15;;;;;;;7.53;100.00;99792.53;4979650;28;20137;-63
2022/12/22 18:18:17;;;;;;;25.60;20.60;;;;;;;7.54;100.00;99791.56;4981500;28;20046;-64
2022/12/22 18:20:45;;;;;;;26.45;19.00;;;;;;;7.51;100.00;99802.22;4986796;28;20069;-65
2022/12/22 18:23:33;;;;;;;22.58;19.27;;;;;;;7.49;100.00;99793.63;4957937;28;20637;-65
2022/12/22 18:26:00;;;;;;;24.38;19.48;;;;;;;7.41;100.00;99795.84;4971817;28;20050;-64
2022/12/22 18:28:27;;;;;;;23.25;18.90;;;;;;;7.34;100.00;99795.38;4980592;28;20114;-64
2022/12/22 18:30:54;;;;;;;24.88;19.10;;;;;;;7.38;100.00;99805.66;4972147;28;20054;-64
2022/12/22 18:33:21;;;;;;;24.58;19.60;;;;;;;7.38;100.00;99797.81;4980815;28;20561;-64
2022/12/22 18:35:49;;;;;;;22.83;18.27;;;;;;;7.32;100.00;99799.84;4979226;28;20054;-64
2022/12/22 18:38:26;;;;;;;22.35;17.42;;;;;;;7.36;100.00;99798.75;4963625;28;20622;-64
2022/12/22 18:40:54;;;;;;;24.25;17.52;;;;;;;7.29;100.00;99800.03;4961892;28;20055;-64
2022/12/22 18:43:22;;;;;;;21.45;17.27;;;;;;;7.31;100.00;99795.56;4981594;28;20077;-62
2022/12/22 18:45:49;;;;;;;27.50;19.02;;;;;;;7.27;100.00;99804.53;4971234;28;20051;-65
2022/12/22 18:48:16;;;;;;;25.88;19.05;;;;;;;7.27;100.00;99801.91;4987286;28;20042;-67
2022/12/22 18:50:43;;;;;;;24.25;18.67;;;;;;;7.34;100.00;99799.78;4957580;28;20051;-66
2022/12/22 18:53:28;;;;;;;21.73;17.77;;;;;;;7.34;100.00;99794.56;4980782;28;20570;-65
2022/12/22 18:55:56;;;;;;;23.83;19.17;;;;;;;7.27;100.00;99801.06;4950744;28;20050;-65
2022/12/22 18:58:24;;;;;;;27.85;18.08;;;;;;;7.18;100.00;99802.44;4972879;28;20064;-65
2022/12/22 19:00:53;;;;;;;23.42;17.17;;;;;;;7.19;100.00;99804.13;4977889;28;20078;-65
2022/12/22 19:03:22;;;;;;;22.38;16.77;;;;;;;7.19;100.00;99809.34;4977159;28;20047;-65
2022/12/22 19:05:50;;;;;;;21.73;16.73;;;;;;;7.06;100.00;99798.75;4956047;28;20515;-66
2022/12/22 19:08:20;;;;;;;25.23;17.95;;;;;;;7.02;100.00;99799.84;4977405;28;20054;-63
2022/12/22 19:10:59;;;;;;;21.88;17.50;;;;;;;6.97;100.00;99801.06;4960091;28;20047;-65
2022/12/22 19:13:42;;;;;;;21.52;16.70;;;;;;;6.92;100.00;99809.16;4975618;28;20082;-65
2022/12/22 19:16:12;;;;;;;22.00;17.05;;;;;;;6.85;100.00;99807.84;4977336;28;20046;-65
2022/12/22 19:18:41;;;;;;;23.70;17.25;;;;;;;6.84;100.00;99808.75;4978456;28;20062;-65
2022/12/22 19:21:12;;;;;;;23.08;17.25;;;;;;;6.82;100.00;99798.38;4983638;28;20156;-66
2022/12/22 19:23:40;;;;;;;22.05;17.25;;;;;;;6.83;100.00;99796.59;4976351;28;20137;-65
2022/12/22 19:26:17;;;;;;;22.52;16.63;;;;;;;6.79;100.00;99803.78;4978258;28;20133;-65
2022/12/22 19:28:44;;;;;;;34.63;19.05;;;;;;;6.80;100.00;99802.03;4954320;28;20125;-65
2022/12/22 19:31:20;;;;;;;24.33;17.85;;;;;;;6.81;100.00;99801.09;4953982;28;20133;-65
2022/12/22 19:33:48;;;;;;;26.05;18.00;;;;;;;6.82;100.00;99801.00;4978364;28;20086;-65
2022/12/22 19:36:26;;;;;;;28.42;19.55;;;;;;;6.80;100.00;99802.03;4978501;28;20396;-63
2022/12/22 19:38:55;;;;;;;27.80;18.63;;;;;;;6.80;100.00;99802.03;4974263;28;20081;-64
2022/12/22 19:41:39;;;;;;;28.63;18.30;;;;;;;6.79;100.00;99806.38;4968309;28;20059;-66
2022/12/22 19:44:26;;;;;;;30.67;19.38;;;;;;;6.76;100.00;99808.38;4976674;28;20046;-64
2022/12/22 19:46:54;;;;;;;25.42;17.50;;;;;;;6.74;100.00;99799.75;4976466;28;20051;-64
2022/12/22 19:49:25;;;;;;;26.65;18.85;;;;;;;6.71;100.00;99806.00;4969709;28;20567;-65
2022/12/22 19:51:54;;;;;;;27.83;20.60;;;;;;;6.74;100.00;99799.75;4978503;28;20106;-64
2022/12/22 19:54:21;;;;;;;28.65;19.23;;;;;;;6.74;100.00;99799.75;4976983;28;20069;-65
2022/12/22 19:56:53;;;;;;;27.33;18.85;;;;;;;6.69;100.00;99799.16;4975448;28;20062;-65
2022/12/22 19:59:25;;;;;;;27.45;20.52;;;;;;;6.72;100.00;99796.38;4970345;28;20054;-64
2022/12/22 20:02:20;;;;;;;28.95;20.40;;;;;;;6.68;100.00;99795.69;4985397;28;20047;-63
2022/12/22 20:04:48;;;;;;;27.40;20.15;;;;;;;6.65;100.00;99785.41;4991903;28;20056;-65
2022/12/22 20:07:16;;;;;;;28.13;20.23;;;;;;;6.66;100.00;99781.84;4976268;28;20074;-65
2022/12/22 20:09:43;;;;;;;32.42;20.45;;;;;;;6.62;100.00;99792.56;4994186;28;20192;-65
2022/12/22 20:12:21;;;;;;;31.23;20.33;;;;;;;6.61;100.00;99791.72;4984589;28;20130;-64
2022/12/22 20:14:48;;;;;;;32.10;20.27;;;;;;;6.63;100.00;99796.91;4981488;28;20081;-64
2022/12/22 20:17:15;;;;;;;37.70;21.83;;;;;;;6.59;100.00;99791.81;4994917;28;20047;-64
2022/12/22 20:19:43;;;;;;;30.58;19.60;;;;;;;6.58;100.00;99792.75;4993840;28;20133;-64
2022/12/22 20:22:14;;;;;;;30.95;21.23;;;;;;;6.59;100.00;99793.59;5000738;28;20133;-64
2022/12/22 20:24:42;;;;;;;33.72;20.85;;;;;;;6.70;100.00;99793.84;4970802;28;20085;-65
2022/12/22 20:27:22;;;;;;;28.35;20.50;;;;;;;6.63;100.00;99800.34;4987804;28;20141;-65
2022/12/22 20:29:50;;;;;;;29.77;19.77;;;;;;;6.58;100.00;99791.94;4979104;28;20137;-65
2022/12/22 20:32:17;;;;;;;34.20;21.42;;;;;;;6.60;100.00;99796.13;4994559;28;20386;-65
2022/12/22 20:34:53;;;;;;;34.95;21.95;;;;;;;6.55;100.00;99802.53;4987210;28;20470;-64
2022/12/22 20:37:20;;;;;;;35.60;21.02;;;;;;;6.55;100.00;99794.69;4991100;28;20043;-64
2022/12/22 20:39:47;;;;;;;33.75;22.33;;;;;;;6.52;100.00;99800.94;4997248;28;20074;-64
2022/12/22 20:42:22;;;;;;;36.97;21.98;;;;;;;6.57;100.00;99801.53;4992930;28;20058;-65
2022/12/22 20:44:49;;;;;;;32.27;20.87;;;;;;;6.57;100.00;99804.16;4988625;28;20050;-65
2022/12/22 20:47:32;;;;;;;32.05;21.67;;;;;;;6.58;100.00;99803.22;5002302;28;20136;-66
2022/12/22 20:49:59;;;;;;;33.97;21.33;;;;;;;6.53;100.00;99801.81;4993187;28;20453;-65
2022/12/22 20:52:26;;;;;;;35.58;21.23;;;;;;;6.57;100.00;99809.38;4982551;28;20417;-66
2022/12/22 20:54:53;;;;;;;38.53;21.65;;;;;;;6.58;100.00;99800.59;4988887;28;20054;-64
2022/12/22 20:57:21;;;;;;;31.00;21.13;;;;;;;6.57;100.00;99798.94;4983667;28;20142;-65
2022/12/22 20:59:49;;;;;;;34.40;20.80;;;;;;;6.59;100.00;99798.84;4977481;28;20081;-64
2022/12/22 21:02:26;;;;;;;32.05;21.13;;;;;;;6.58;100.00;99800.59;4986038;28;20082;-65
2022/12/22 21:04:55;;;;;;;34.67;21.52;;;;;;;6.58;100.00;99800.59;4983804;28;20108;-65
2022/12/22 21:07:22;;;;;;;31.92;20.70;;;;;;;6.60;100.00;99795.28;4987467;28;20054;-64
2022/12/22 21:09:49;;;;;;;30.67;20.15;;;;;;;6.61;100.00;99799.56;4990904;28;20125;-65
2022/12/22 21:12:16;;;;;;;32.08;21.10;;;;;;;6.58;100.00;99805.00;4992727;28;20046;-63
2022/12/22 21:14:44;;;;;;;30.15;21.52;;;;;;;6.58;100.00;99803.22;5001079;28;20077;-64
2022/12/22 21:17:15;;;;;;;35.67;19.83;;;;;;;6.57;100.00;99798.06;4997373;28;20517;-64
2022/12/22 21:19:42;;;;;;;30.35;20.67;;;;;;;6.57;100.00;99804.16;4977214;28;20050;-64
2022/12/22 21:22:10;;;;;;;34.92;21.83;;;;;;;6.53;100.00;99810.47;4997662;28;20060;-65
2022/12/22 21:24:37;;;;;;;30.63;20.65;;;;;;;6.53;100.00;99800.03;4979878;28;20570;-64
2022/12/22 21:27:04;;;;;;;32.70;20.17;;;;;;;6.60;100.00;99803.13;4971914;28;20141;-66
2022/12/22 21:29:31;;;;;;;35.17;21.25;;;;;;;6.58;100.00;99803.22;4987592;28;20410;-67
2022/12/22 21:31:59;;;;;;;35.55;22.92;;;;;;;6.57;100.00;99800.69;4990590;28;20042;-64
2022/12/22 21:34:26;;;;;;;34.00;21.50;;;;;;;6.54;100.00;99795.63;4986545;28;20130;-64
2022/12/22 21:36:58;;;;;;;30.60;21.13;;;;;;;6.54;100.00;99790.41;4988910;28;20184;-66
2022/12/22 21:39:38;;;;;;;33.08;22.15;;;;;;;6.56;100.00;99783.31;4973620;28;20067;-67
2022/12/22 21:42:06;;;;;;;28.48;19.52;;;;;;;6.56;100.00;99797.22;4972604;28;20073;-67
2022/12/22 21:44:34;;;;;;;33.53;22.38;;;;;;;6.57;100.00;99798.06;4988031;28;20065;-66
2022/12/22 21:47:01;;;;;;;30.15;21.35;;;;;;;6.55;100.00;99795.53;4992385;28;20129;-66
2022/12/22 21:49:30;;;;;;;33.72;21.08;;;;;;;6.56;100.00;99799.84;5003541;28;20133;-65
2022/12/22 21:51:58;;;;;;;32.08;21.42;;;;;;;6.57;100.00;99798.06;4996267;28;20082;-64
2022/12/22 21:54:26;;;;;;;30.83;20.05;;;;;;;6.60;100.00;99796.13;4989572;28;20080;-65
2022/12/22 21:56:53;;;;;;;31.05;20.00;;;;;;;6.61;100.00;99796.97;4958783;28;20053;-66
2022/12/22 21:59:21;;;;;;;30.48;20.35;;;;;;;6.61;100.00;99791.72;4994180;28;20052;-66
2022/12/22 22:01:51;;;;;;;32.65;20.77;;;;;;;6.59;100.00;99789.22;5004158;28;20158;-65
2022/12/22 22:04:20;;;;;;;29.30;21.45;;;;;;;6.64;100.00;99781.09;4999523;28;20129;-65
2022/12/22 22:06:47;;;;;;;30.52;19.98;;;;;;;6.65;100.00;99784.56;4982824;28;20050;-65
2022/12/22 22:09:14;;;;;;;29.77;20.48;;;;;;;6.57;100.00;99785.84;4991177;28;20050;-66
2022/12/22 22:14:27;;;;;;;33.90;20.77;;;;;;;6.43;100.00;99770.06;4999564;28;20078;-64
2022/12/22 22:16:54;;;;;;;33.88;19.73;;;;;;;6.44;100.00;99779.63;4983737;28;20170;-69
2022/12/22 22:19:21;;;;;;;32.35;20.70;;;;;;;6.49;100.00;99774.13;4992588;28;20467;-65
2022/12/22 22:21:48;;;;;;;36.75;20.63;;;;;;;6.50;100.00;99773.19;5002165;28;20518;-66
2022/12/22 22:24:15;;;;;;;32.33;22.67;;;;;;;6.48;100.00;99773.25;4995419;28;20050;-64
2022/12/22 22:26:45;;;;;;;33.55;20.17;;;;;;;6.48;100.00;99770.66;4993080;28;20176;-66
2022/12/22 22:29:12;;;;;;;32.95;21.92;;;;;;;6.48;100.00;99778.50;4990311;28;20060;-65
2022/12/22 22:31:39;;;;;;;30.30;20.17;;;;;;;6.49;100.00;99780.19;4992019;28;20050;-66
2022/12/22 22:34:07;;;;;;;31.02;21.05;;;;;;;6.40;100.00;99780.72;4987683;28;20078;-67
2022/12/22 22:36:34;;;;;;;28.98;19.40;;;;;;;6.42;100.00;99778.00;4990006;28;20137;-66
2022/12/22 22:39:01;;;;;;;28.38;20.70;;;;;;;6.45;100.00;99785.69;4998472;28;20078;-66
2022/12/22 22:41:30;;;;;;;33.10;20.52;;;;;;;6.49;100.00;99792.44;4987594;28;20081;-65
2022/12/22 22:44:02;;;;;;;28.15;19.27;;;;;;;6.54;100.00;99790.41;4984664;28;20058;-66
2022/12/22 22:46:29;;;;;;;30.15;19.35;;;;;;;6.50;100.00;99781.03;4994010;28;20054;-64
2022/12/22 22:48:57;;;;;;;33.78;20.13;;;;;;;6.51;100.00;99772.25;4988870;28;20046;-65
2022/12/22 22:51:24;;;;;;;32.00;20.65;;;;;;;6.50;100.00;99767.97;4996939;28;20058;-65
2022/12/22 22:53:52;;;;;;;30.52;19.60;;;;;;;6.39;100.00;99770.31;4991758;28;20145;-65
2022/12/22 22:56:19;;;;;;;29.55;19.08;;;;;;;6.37;100.00;99764.34;4991710;28;20440;-63
2022/12/22 22:58:46;;;;;;;27.13;19.50;;;;;;;6.42;100.00;99770.16;4985399;28;20121;-63
2022/12/22 23:01:13;;;;;;;27.58;18.92;;;;;;;6.42;100.00;99764.94;4983513;28;20417;-65
2022/12/22 23:03:40;;;;;;;28.20;18.45;;;;;;;6.45;100.00;99760.38;4998351;28;20164;-64
2022/12/22 23:06:11;;;;;;;31.33;19.10;;;;;;;6.50;100.00;99758.34;4995496;28;20142;-63
2022/12/22 23:08:38;;;;;;;24.98;18.23;;;;;;;6.54;100.00;99746.78;4996211;28;20578;-62
2022/12/22 23:11:11;;;;;;;28.55;19.00;;;;;;;6.58;100.00;99748.31;4991014;28;20064;-63
2022/12/22 23:13:38;;;;;;;28.92;18.85;;;;;;;6.58;100.00;99743.09;4991226;28;20425;-64
2022/12/22 23:16:06;;;;;;;24.77;17.63;;;;;;;6.59;100.00;99749.16;4988176;28;20056;-65
2022/12/22 23:18:33;;;;;;;26.88;17.90;;;;;;;6.62;100.00;99740.28;4978085;28;20130;-64
2022/12/22 23:21:02;;;;;;;25.17;17.05;;;;;;;6.62;100.00;99732.41;4987171;28;20065;-64
2022/12/22 23:23:31;;;;;;;28.10;18.67;;;;;;;6.63;100.00;99723.66;4997234;28;20517;-65
2022/12/22 23:25:58;;;;;;;25.95;17.67;;;;;;;6.62;100.00;99735.03;4973067;28;20065;-64
2022/12/22 23:28:25;;;;;;;26.63;17.50;;;;;;;6.62;100.00;99730.69;4981908;28;20054;-63
2022/12/22 23:30:52;;;;;;;24.95;16.58;;;;;;;6.63;100.00;99724.50;4996552;28;20570;-63
2022/12/22 23:33:20;;;;;;;24.60;17.67;;;;;;;6.66;100.00;99728.72;4996692;28;20297;-65
2022/12/22 23:35:48;;;;;;;24.52;15.75;;;;;;;6.60;100.00;99725.50;5002669;28;20048;-65
2022/12/22 23:38:19;;;;;;;23.55;16.75;;;;;;;6.59;100.00;99725.63;5001595;28;20518;-62
2022/12/22 23:40:47;;;;;;;25.25;16.58;;;;;;;6.62;100.00;99721.97;4986827;28;20302;-62
2022/12/22 23:43:20;;;;;;;26.38;16.70;;;;;;;6.52;100.00;99717.25;5000924;28;20050;-64
2022/12/22 23:45:47;;;;;;;24.50;16.88;;;;;;;6.47;100.00;99706.22;5000608;28;20134;-64
2022/12/22 23:48:14;;;;;;;25.45;16.73;;;;;;;6.42;100.00;99715.25;4994304;28;20058;-63
2022/12/22 23:50:45;;;;;;;24.17;15.93;;;;;;;6.49;100.00;99708.78;5000809;28;20057;-64
2022/12/22 23:53:12;;;;;;;25.90;16.73;;;;;;;6.52;100.00;99711.19;4998349;28;20443;-64
2022/12/22 23:55:46;;;;;;;27.38;16.00;;;;;;;6.52;100.00;99703.34;4990171;28;20125;-64
2022/12/22 23:58:15;;;;;;;26.75;17.50;;;;;;;6.55;100.00;99697.94;4996863;28;20137;-64
